Etusivu
METAR-TAF:

METAR-TAF

Lentoasemat :

Coleman, Texas, Yhdysvallat

Leveyspiiri: 31-50-28N, Pituuspiiri: 099-24-12W, korkeus merenpinnasta: 517 m

Tämänhetkinen sää

Tämä raportti tehtiin 21 minuuttia sitten, kello 12.35 UTC
Tuuli 3 kn etelästä/kaakosta
Lämpötila 22°C
Kosteus 78%
Ilmanpaine 1012 hPa
Näkyvyys: 16.1 km
Hajanaisia pilviä 3200 ft:n korkeudessa

METAR: KCOM 191235Z AUTO 15003KT 10SM SCT032 22/18 A2987 RMK AO2 T02190180

Aika: 06:56 (12:56 UTC)


TAF: puuttuu

Säähavainnot ja -ennusteet yli 4000 lentoasemalta (METAR- ja TAF-raportit).

Käytössä olevat sääasemat on merkitty karttaan keltaisilla ja punaisilla pisteillä.

Aseta hiiri pisteen päälle nähdäksesi sääaseman nimen.

Klikkaa sitten nähdäksesi säähavainnot ja -ennusteet.

Kartan vaihtaminen: klikkaa mustalla rastilla varustettuja vihreitä pisteitä, niin voit zoomata sisään; viivalla varustettua vihreää pistettä, niin voit zoomata ulos tai vihreitä nuolia, niin pääset viereisille kartoille.


METAR-TAF: